Welcome to Northern Hawkes Bay. New Zealand.
PWS Header
      nz Flag



Hit Counter


W3C Valid W3C Valid logo


    Wairoa

Select any of the Stations below to visit their websites.










Historic Data from Weather Underground
Select the location of interest below. Wairoa is the default. Please have patience, this Data is slow to load in.
Northern Hawkes Bay Historical Data
Daily Summary for October 27, 2017 Units:  Metric    English   Both
« Previous Day
Next Day »
Daily Weekly Monthly Yearly Custom
  High: Low: Average:
Temperature: 18.9 °C 12.2 °C 15 °C
Dew Point: 15.4 °C 11.7 °C 12.8 °C
Humidity: 99% 75% 87%
Wind Speed: 14.8km/h 0.0km/h 4.3km/h
Wind Gust: 23.3km/h - -
Wind- - SSW
Pressure: 1023.2 hPa 1010.7 hPa -
Precipitation: 0.5 mm    
Historical Graphs
 
 
Tabular Data for October 27, 2017
Time Temperature Dew Point Pressure Wind Wind Speed Wind Gust Humidity Rainfall Rate (Hourly) solar
00:02 13.0 °C 12.6 °C 1010.7 hPa North 1.1 km/h 5.0 km/h 97% 0.0 mm 0 W/m2
00:07 12.9 °C 12.4 °C 1010.7 hPa North 1.1 km/h 5.0 km/h 97% 0.0 mm 0 W/m2
00:12 12.8 °C 12.3 °C 1011.1 hPa North 1.1 km/h 5.0 km/h 97% 0.0 mm 0 W/m2
00:17 12.8 °C 12.3 °C 1010.7 hPa Calm   3.5 km/h 97% 0.0 mm 0 W/m2
00:22 12.8 °C 12.3 °C 1011.1 hPa Calm   2.6 km/h 97% 0.0 mm 0 W/m2
00:27 12.7 °C 12.2 °C 1010.7 hPa Calm   2.6 km/h 97% 0.0 mm 0 W/m2
00:32 12.7 °C 12.2 °C 1010.7 hPa Calm   2.6 km/h 97% 0.0 mm 0 W/m2
00:37 12.7 °C 12.2 °C 1010.7 hPa NE 1.1 km/h 2.6 km/h 97% 0.0 mm 0 W/m2
00:42 12.7 °C 12.2 °C 1011.1 hPa NW 1.1 km/h 3.5 km/h 97% 0.0 mm 0 W/m2
00:47 12.7 °C 12.2 °C 1011.1 hPa Calm   3.5 km/h 97% 0.0 mm 0 W/m2
00:52 12.8 °C 12.3 °C 1011.1 hPa NW 2.6 km/h 5.0 km/h 97% 0.0 mm 0 W/m2
00:57 12.7 °C 12.2 °C 1011.4 hPa NW 1.1 km/h 5.0 km/h 97% 0.0 mm 0 W/m2
01:02 12.7 °C 12.2 °C 1011.4 hPa NW 2.6 km/h 6.1 km/h 97% 0.0 mm 0 W/m2
01:07 12.6 °C 12.2 °C 1011.1 hPa NW 2.6 km/h 6.1 km/h 97% 0.0 mm 0 W/m2
01:12 12.6 °C 12.2 °C 1011.4 hPa NNW 2.6 km/h 5.0 km/h 97% 0.0 mm 0 W/m2
01:17 12.6 °C 12.2 °C 1011.7 hPa NNW 3.5 km/h 6.1 km/h 97% 0.0 mm 0 W/m2
01:22 12.6 °C 12.2 °C 1011.7 hPa NNW 2.6 km/h 6.1 km/h 97% 0.3 mm 0 W/m2
01:27 12.6 °C 12.2 °C 1011.7 hPa NNW 3.5 km/h 7.2 km/h 97% 0.3 mm 0 W/m2
01:32 12.6 °C 12.2 °C 1011.4 hPa NNW 2.6 km/h 7.2 km/h 97% 0.3 mm 0 W/m2
01:48 12.4 °C 11.9 °C 1011.7 hPa North 1.1 km/h 3.5 km/h 97% 0.3 mm 0 W/m2
01:53 12.4 °C 11.9 °C 1011.7 hPa North 1.1 km/h 3.5 km/h 97% 0.3 mm 0 W/m2
01:58 12.4 °C 11.9 °C 1011.4 hPa Calm   3.5 km/h 97% 0.3 mm 0 W/m2
02:03 12.4 °C 11.9 °C 1011.4 hPa Calm   3.5 km/h 97% 0.5 mm 0 W/m2
02:08 12.3 °C 11.8 °C 1011.4 hPa Calm   3.5 km/h 97% 0.5 mm 0 W/m2
02:13 12.3 °C 11.8 °C 1011.1 hPa Calm   2.6 km/h 97% 0.5 mm 0 W/m2
02:18 12.3 °C 11.8 °C 1011.4 hPa North 1.1 km/h 2.6 km/h 97% 0.5 mm 0 W/m2
02:23 12.3 °C 11.8 °C 1011.1 hPa NNW 1.1 km/h 3.5 km/h 97% 0.3 mm 0 W/m2
02:28 12.3 °C 11.8 °C 1011.1 hPa NNW 1.1 km/h 3.5 km/h 97% 0.3 mm 0 W/m2
02:33 12.4 °C 11.9 °C 1011.4 hPa NW 2.6 km/h 3.5 km/h 97% 0.3 mm 0 W/m2
02:38 12.4 °C 11.9 °C 1011.4 hPa NNW 1.1 km/h 6.1 km/h 97% 0.3 mm 0 W/m2
02:43 12.4 °C 11.9 °C 1011.4 hPa NNW 1.1 km/h 8.7 km/h 97% 0.3 mm 0 W/m2
02:48 12.4 °C 11.9 °C 1011.4 hPa NNW 3.5 km/h 8.7 km/h 97% 0.3 mm 0 W/m2
02:53 12.4 °C 11.9 °C 1011.4 hPa NNW 2.6 km/h 7.2 km/h 97% 0.3 mm 0 W/m2
02:58 12.4 °C 11.9 °C 1011.4 hPa NNW 2.6 km/h 6.1 km/h 97% 0.0 mm 0 W/m2
03:03 12.4 °C 11.9 °C 1011.4 hPa Calm   5.0 km/h 97% 0.0 mm 0 W/m2
03:08 12.4 °C 11.9 °C 1011.4 hPa Calm   3.5 km/h 97% 0.0 mm 0 W/m2
03:13 12.4 °C 11.9 °C 1011.4 hPa NNW 2.6 km/h 3.5 km/h 97% 0.0 mm 0 W/m2
03:18 12.4 °C 11.9 °C 1011.4 hPa NNW 2.6 km/h 3.5 km/h 97% 0.0 mm 0 W/m2
03:23 12.5 °C 12.1 °C 1011.7 hPa NNW 5.0 km/h 7.2 km/h 97% 0.0 mm 0 W/m2
03:28 12.4 °C 11.9 °C 1011.4 hPa NW 3.5 km/h 7.2 km/h 97% 0.0 mm 0 W/m2
03:33 12.4 °C 11.9 °C 1011.4 hPa NW 2.6 km/h 7.2 km/h 97% 0.0 mm 0 W/m2
03:38 12.4 °C 11.9 °C 1011.4 hPa NNW 2.6 km/h 6.1 km/h 97% 0.0 mm 0 W/m2
03:59 12.3 °C 11.8 °C 1011.7 hPa NW 2.6 km/h 6.1 km/h 97% 0.0 mm 0 W/m2
04:04 12.3 °C 11.8 °C 1011.7 hPa NNW 2.6 km/h 6.1 km/h 97% 0.0 mm 0 W/m2
04:09 12.3 °C 11.8 °C 1011.7 hPa NNW 2.6 km/h 5.0 km/h 97% 0.0 mm 0 W/m2
04:14 12.4 °C 11.9 °C 1011.7 hPa NNW 3.5 km/h 6.1 km/h 97% 0.0 mm 0 W/m2
04:19 12.4 °C 11.9 °C 1011.7 hPa NW 1.1 km/h 6.1 km/h 97% 0.0 mm 0 W/m2
04:24 12.4 °C 11.9 °C 1012.1 hPa NW 1.1 km/h 7.2 km/h 97% 0.0 mm 0 W/m2
04:29 12.4 °C 11.9 °C 1011.7 hPa NNW 3.5 km/h 8.7 km/h 97% 0.0 mm 0 W/m2
04:34 12.4 °C 11.9 °C 1011.7 hPa NNW 2.6 km/h 8.7 km/h 97% 0.0 mm 0 W/m2
04:39 12.4 °C 11.9 °C 1012.1 hPa NNW 1.1 km/h 8.7 km/h 97% 0.0 mm 0 W/m2
04:44 12.4 °C 11.9 °C 1012.1 hPa North 2.6 km/h 8.7 km/h 97% 0.0 mm 0 W/m2
04:49 12.4 °C 11.9 °C 1012.1 hPa NNE 1.1 km/h 6.1 km/h 97% 0.0 mm 0 W/m2
04:54 12.3 °C 11.8 °C 1012.1 hPa Calm   6.1 km/h 97% 0.0 mm 0 W/m2
04:59 12.3 °C 11.8 °C 1012.1 hPa Calm   3.5 km/h 97% 0.0 mm 0 W/m2
05:05 12.3 °C 11.8 °C 1012.1 hPa North 1.1 km/h 3.5 km/h 97% 0.0 mm 0 W/m2
05:10 12.3 °C 11.8 °C 1012.1 hPa Calm   2.6 km/h 97% 0.0 mm 0 W/m2
05:15 12.3 °C 11.8 °C 1012.4 hPa Calm   3.5 km/h 97% 0.0 mm 0 W/m2
05:20 12.3 °C 11.8 °C 1012.4 hPa Calm   3.5 km/h 97% 0.0 mm 0 W/m2
05:25 12.3 °C 11.8 °C 1012.4 hPa North 1.1 km/h 3.5 km/h 97% 0.0 mm 0 W/m2
05:30 12.3 °C 11.8 °C 1012.4 hPa NNW 2.6 km/h 3.5 km/h 97% 0.0 mm 0 W/m2
05:36 12.2 °C 11.7 °C 1012.8 hPa Calm   3.5 km/h 97% 0.0 mm 0 W/m2
05:41 12.2 °C 11.7 °C 1012.8 hPa North 3.5 km/h 6.1 km/h 97% 0.0 mm 0 W/m2
05:46 12.2 °C 11.7 °C 1012.8 hPa NNW 2.6 km/h 6.1 km/h 97% 0.0 mm 0 W/m2
05:51 12.2 °C 11.7 °C 1012.8 hPa NNW 3.5 km/h 6.1 km/h 97% 0.0 mm 0 W/m2
05:56 12.2 °C 11.7 °C 1012.8 hPa NNW 2.6 km/h 5.0 km/h 97% 0.0 mm 0 W/m2
06:01 12.2 °C 11.7 °C 1012.8 hPa NNW 2.6 km/h 6.1 km/h 97% 0.0 mm 0 W/m2
06:06 12.2 °C 11.7 °C 1013.1 hPa NW 1.1 km/h 6.1 km/h 97% 0.0 mm 0 W/m2
06:11 12.2 °C 11.7 °C 1013.1 hPa NW 1.1 km/h 5.0 km/h 97% 0.0 mm 0 W/m2
06:16 12.2 °C 11.7 °C 1013.1 hPa NW 1.1 km/h 3.5 km/h 97% 0.0 mm 1 W/m2
06:21 12.2 °C 11.7 °C 1013.4 hPa NNW 2.6 km/h 5.0 km/h 97% 0.0 mm 4 W/m2
06:26 12.2 °C 11.7 °C 1013.4 hPa NW 5.0 km/h 6.1 km/h 97% 0.0 mm 11 W/m2
06:31 12.2 °C 11.7 °C 1013.4 hPa NNW 2.6 km/h 6.1 km/h 97% 0.0 mm 17 W/m2
06:36 12.2 °C 11.7 °C 1013.4 hPa NNW 1.1 km/h 6.1 km/h 97% 0.0 mm 18 W/m2
06:41 12.2 °C 11.7 °C 1013.4 hPa North 2.6 km/h 5.0 km/h 97% 0.0 mm 21 W/m2
06:46 12.3 °C 11.8 °C 1013.4 hPa North 2.6 km/h 6.1 km/h 97% 0.0 mm 23 W/m2
06:51 12.3 °C 11.8 °C 1013.4 hPa North 3.5 km/h 6.1 km/h 97% 0.0 mm 33 W/m2
06:56 12.4 °C 11.9 °C 1013.4 hPa North 2.6 km/h 6.1 km/h 97% 0.0 mm 35 W/m2
07:01 12.4 °C 11.9 °C 1013.4 hPa NNW 2.6 km/h 7.2 km/h 97% 0.0 mm 45 W/m2
07:06 12.5 °C 12.1 °C 1013.4 hPa Calm   7.2 km/h 97% 0.0 mm 77 W/m2
07:11 12.7 °C 12.2 °C 1013.4 hPa North 3.5 km/h 7.2 km/h 97% 0.0 mm 59 W/m2
07:16 12.8 °C 12.3 °C 1013.8 hPa North 1.1 km/h 7.2 km/h 97% 0.0 mm 72 W/m2
07:21 12.9 °C 12.4 °C 1013.8 hPa NNW 2.6 km/h 8.7 km/h 97% 0.0 mm 96 W/m2
07:26 12.9 °C 12.4 °C 1014.1 hPa NNW 2.6 km/h 12.2 km/h 97% 0.0 mm 79 W/m2
07:31 12.9 °C 12.4 °C 1014.1 hPa North 7.2 km/h 12.2 km/h 97% 0.0 mm 95 W/m2
07:36 13.0 °C 12.8 °C 1014.1 hPa North 7.2 km/h 13.4 km/h 99% 0.0 mm 94 W/m2
07:41 13.0 °C 12.8 °C 1014.1 hPa North 8.7 km/h 13.4 km/h 99% 0.0 mm 105 W/m2
07:46 13.0 °C 12.8 °C 1014.4 hPa NNW 8.7 km/h 13.4 km/h 99% 0.0 mm 138 W/m2
07:51 13.4 °C 13.3 °C 1014.1 hPa NNW 3.5 km/h 13.4 km/h 99% 0.0 mm 128 W/m2
07:56 13.7 °C 13.6 °C 1014.4 hPa NNW 5.0 km/h 11.1 km/h 99% 0.0 mm 219 W/m2
08:01 14.5 °C 14.3 °C 1014.4 hPa NNW 3.5 km/h 11.1 km/h 99% 0.0 mm 157 W/m2
08:07 15.0 °C 14.2 °C 1014.4 hPa NNW 3.5 km/h 11.1 km/h 95% 0.0 mm 181 W/m2
08:12 15.1 °C 14.0 °C 1014.8 hPa NNW 3.5 km/h 11.1 km/h 93% 0.0 mm 132 W/m2
08:17 14.9 °C 13.6 °C 1014.4 hPa NNW 3.5 km/h 8.7 km/h 92% 0.0 mm 126 W/m2
08:22 14.7 °C 13.4 °C 1014.8 hPa NNW 6.1 km/h 11.1 km/h 92% 0.0 mm 131 W/m2
08:27 14.6 °C 13.3 °C 1014.8 hPa NNW 5.0 km/h 11.1 km/h 92% 0.0 mm 132 W/m2
08:32 14.7 °C 13.6 °C 1014.8 hPa NNW 1.1 km/h 9.7 km/h 93% 0.0 mm 132 W/m2
08:37 14.8 °C 13.7 °C 1014.8 hPa NNW 2.6 km/h 8.7 km/h 93% 0.0 mm 171 W/m2
08:42 15.2 °C 13.9 °C 1014.8 hPa NNW 1.1 km/h 8.7 km/h 92% 0.0 mm 147 W/m2
08:47 15.2 °C 13.7 °C 1015.1 hPa NNW 1.1 km/h 5.0 km/h 91% 0.0 mm 126 W/m2
08:52 15.4 °C 13.8 °C 1015.1 hPa Calm   5.0 km/h 90% 0.0 mm 198 W/m2
08:57 16.4 °C 14.4 °C 1015.5 hPa Calm   5.0 km/h 88% 0.0 mm 390 W/m2
09:02 18.0 °C 15.4 °C 1015.5 hPa Calm   5.0 km/h 85% 0.0 mm 497 W/m2
09:07 18.9 °C 15.0 °C 1015.5 hPa Calm   3.5 km/h 78% 0.0 mm 270 W/m2
09:12 18.9 °C 14.6 °C 1015.8 hPa ESE 5.0 km/h 7.2 km/h 76% 0.0 mm 275 W/m2
09:17 17.9 °C 13.4 °C 1015.8 hPa ESE 1.1 km/h 7.2 km/h 75% 0.0 mm 284 W/m2
09:22 17.9 °C 13.4 °C 1016.1 hPa SSE 5.0 km/h 7.2 km/h 75% 0.0 mm 389 W/m2
09:27 17.4 °C 13.3 °C 1016.1 hPa South 12.2 km/h 14.8 km/h 77% 0.0 mm 319 W/m2
09:32 16.9 °C 13.2 °C 1016.1 hPa South 1.1 km/h 14.8 km/h 79% 0.0 mm 348 W/m2
09:37 17.3 °C 14.0 °C 1016.1 hPa South 6.1 km/h 14.8 km/h 81% 0.0 mm 334 W/m2
09:42 17.2 °C 13.6 °C 1016.1 hPa South 7.2 km/h 12.2 km/h 79% 0.0 mm 338 W/m2
09:47 17.1 °C 13.4 °C 1016.1 hPa South 8.7 km/h 12.2 km/h 79% 0.0 mm 367 W/m2
09:52 17.1 °C 13.8 °C 1016.5 hPa SSE 8.7 km/h 11.1 km/h 81% 0.0 mm 296 W/m2
09:57 16.9 °C 13.4 °C 1016.1 hPa SSE 6.1 km/h 11.1 km/h 80% 0.0 mm 448 W/m2
10:02 17.2 °C 13.6 °C 1016.8 hPa South 7.2 km/h 12.2 km/h 79% 0.0 mm 495 W/m2
10:07 17.2 °C 13.9 °C 1016.8 hPa SSW 11.1 km/h 13.4 km/h 81% 0.0 mm 460 W/m2
10:12 17.4 °C 14.3 °C 1016.8 hPa SSW 7.2 km/h 13.4 km/h 82% 0.0 mm 314 W/m2
10:17 16.9 °C 14.0 °C 1016.8 hPa South 9.7 km/h 14.8 km/h 83% 0.0 mm 335 W/m2
10:22 16.8 °C 14.1 °C 1016.8 hPa SSW 7.2 km/h 14.8 km/h 84% 0.0 mm 510 W/m2
10:27 17.3 °C 14.4 °C 1016.8 hPa SSW 12.2 km/h 15.8 km/h 83% 0.0 mm 566 W/m2
10:47 17.4 °C 14.3 °C 1016.8 hPa SSW 5.0 km/h 14.8 km/h 82% 0.0 mm 597 W/m2
10:52 17.6 °C 14.3 °C 1016.8 hPa SSW 7.2 km/h 14.8 km/h 81% 0.0 mm 442 W/m2
10:57 17.3 °C 14.0 °C 1016.8 hPa South 12.2 km/h 15.8 km/h 81% 0.0 mm 481 W/m2
11:02 17.3 °C 14.2 °C 1017.2 hPa South 9.7 km/h 15.8 km/h 82% 0.0 mm 699 W/m2
11:07 17.4 °C 14.3 °C 1017.2 hPa SSW 8.7 km/h 15.8 km/h 82% 0.0 mm 493 W/m2
11:12 17.4 °C 14.1 °C 1017.2 hPa South 9.7 km/h 15.8 km/h 81% 0.0 mm 448 W/m2
11:17 17.4 °C 14.3 °C 1017.2 hPa SSW 7.2 km/h 15.8 km/h 82% 0.0 mm 388 W/m2
11:22 17.8 °C 14.7 °C 1017.2 hPa SSW 5.0 km/h 14.8 km/h 82% 0.0 mm 417 W/m2
11:27 18.0 °C 14.3 °C 1017.5 hPa South 6.1 km/h 17.2 km/h 79% 0.0 mm 437 W/m2
11:32 18.0 °C 14.1 °C 1017.2 hPa South 8.7 km/h 17.2 km/h 78% 0.0 mm 584 W/m2
11:37 17.8 °C 14.5 °C 1017.2 hPa South 8.7 km/h 15.8 km/h 81% 0.0 mm 586 W/m2
11:42 17.5 °C 14.2 °C 1017.5 hPa SSW 12.2 km/h 19.5 km/h 81% 0.0 mm 405 W/m2
11:47 17.4 °C 14.3 °C 1017.5 hPa South 12.2 km/h 19.5 km/h 82% 0.0 mm 929 W/m2
11:52 17.8 °C 14.5 °C 1017.5 hPa SSW 9.7 km/h 15.8 km/h 81% 0.0 mm 406 W/m2
11:57 18.0 °C 14.3 °C 1017.5 hPa SSW 11.1 km/h 17.2 km/h 79% 0.0 mm 829 W/m2
12:02 18.0 °C 14.1 °C 1017.5 hPa South 8.7 km/h 17.2 km/h 78% 0.0 mm 890 W/m2
12:07 17.6 °C 13.7 °C 1017.5 hPa South 9.7 km/h 19.5 km/h 78% 0.0 mm 507 W/m2
12:12 17.7 °C 14.2 °C 1017.5 hPa South 11.1 km/h 19.5 km/h 80% 0.0 mm 1051 W/m2
12:17 17.8 °C 14.5 °C 1017.5 hPa South 9.7 km/h 18.3 km/h 81% 0.0 mm 647 W/m2
12:27 17.8 °C 14.3 °C 1017.5 hPa South 9.7 km/h 18.3 km/h 80% 0.0 mm 486 W/m2
12:32 17.7 °C 14.4 °C 1017.5 hPa South 6.1 km/h 17.2 km/h 81% 0.0 mm 430 W/m2
12:37 17.9 °C 14.4 °C 1017.5 hPa South 11.1 km/h 15.8 km/h 80% 0.0 mm 599 W/m2
12:42 17.9 °C 14.4 °C 1017.8 hPa SSW 7.2 km/h 17.2 km/h 80% 0.0 mm 466 W/m2
12:47 18.0 °C 14.1 °C 1017.8 hPa South 11.1 km/h 18.3 km/h 78% 0.0 mm 550 W/m2
12:52 18.0 °C 14.3 °C 1017.8 hPa SSW 8.7 km/h 18.3 km/h 79% 0.0 mm 920 W/m2
12:57 17.9 °C 13.8 °C 1017.8 hPa SSW 8.7 km/h 18.3 km/h 77% 0.0 mm 438 W/m2
13:02 17.9 °C 14.4 °C 1017.8 hPa South 8.7 km/h 18.3 km/h 80% 0.0 mm 798 W/m2
13:07 18.2 °C 14.5 °C 1017.5 hPa South 8.7 km/h 18.3 km/h 79% 0.0 mm 540 W/m2
13:12 18.2 °C 14.3 °C 1017.8 hPa South 12.2 km/h 18.3 km/h 78% 0.0 mm 478 W/m2
13:17 17.8 °C 14.5 °C 1017.8 hPa SSW 11.1 km/h 18.3 km/h 81% 0.0 mm 464 W/m2
13:22 17.8 °C 14.3 °C 1017.8 hPa SSW 8.7 km/h 18.3 km/h 80% 0.0 mm 494 W/m2
13:27 17.8 °C 14.3 °C 1018.2 hPa South 11.1 km/h 19.5 km/h 80% 0.0 mm 452 W/m2
13:32 17.7 °C 14.0 °C 1017.8 hPa South 13.4 km/h 19.5 km/h 79% 0.0 mm 562 W/m2
13:37 17.7 °C 13.8 °C 1018.2 hPa South 8.7 km/h 18.3 km/h 78% 0.0 mm 361 W/m2
13:42 18.2 °C 13.9 °C 1018.2 hPa South 13.4 km/h 18.3 km/h 76% 0.0 mm 391 W/m2
13:47 18.1 °C 13.6 °C 1018.2 hPa SSE 11.1 km/h 18.3 km/h 75% 0.0 mm 352 W/m2
13:52 18.0 °C 13.7 °C 1018.2 hPa South 9.7 km/h 18.3 km/h 76% 0.0 mm 357 W/m2
13:57 17.5 °C 13.2 °C 1018.2 hPa South 13.4 km/h 19.5 km/h 76% 0.0 mm 373 W/m2
14:02 17.4 °C 13.9 °C 1018.2 hPa South 14.8 km/h 20.9 km/h 80% 0.0 mm 341 W/m2
14:07 17.3 °C 14.0 °C 1018.2 hPa South 11.1 km/h 20.9 km/h 81% 0.0 mm 321 W/m2
14:12 16.9 °C 13.8 °C 1018.2 hPa SSE 12.2 km/h 23.3 km/h 82% 0.0 mm 255 W/m2
14:17 16.7 °C 13.4 °C 1018.2 hPa South 8.7 km/h 23.3 km/h 81% 0.0 mm 286 W/m2
14:22 16.6 °C 13.5 °C 1018.5 hPa South 11.1 km/h 20.9 km/h 82% 0.0 mm 267 W/m2
14:27 16.9 °C 13.8 °C 1018.5 hPa South 11.1 km/h 19.5 km/h 82% 0.0 mm 290 W/m2
14:32 16.8 °C 13.7 °C 1018.2 hPa SSE 3.5 km/h 18.3 km/h 82% 0.0 mm 276 W/m2
14:37 16.6 °C 13.5 °C 1018.5 hPa SSE 2.6 km/h 21.9 km/h 82% 0.0 mm 281 W/m2
14:42 16.9 °C 13.8 °C 1018.2 hPa SE 6.1 km/h 21.9 km/h 82% 0.0 mm 267 W/m2
14:47 17.0 °C 13.6 °C 1018.2 hPa SE 11.1 km/h 15.8 km/h 80% 0.0 mm 279 W/m2
14:52 16.9 °C 13.4 °C 1018.5 hPa SSE 9.7 km/h 18.3 km/h 80% 0.0 mm 298 W/m2
14:57 16.9 °C 13.4 °C 1018.5 hPa SSE 11.1 km/h 20.9 km/h 80% 0.0 mm 260 W/m2
15:02 16.8 °C 13.2 °C 1018.5 hPa SSE 1.1 km/h 20.9 km/h 79% 0.0 mm 261 W/m2
15:07 16.9 °C 13.1 °C 1018.5 hPa SSE 9.7 km/h 20.9 km/h 78% 0.0 mm 267 W/m2
15:12 16.8 °C 13.2 °C 1018.5 hPa SE 3.5 km/h 18.3 km/h 79% 0.0 mm 270 W/m2
15:17 16.9 °C 13.1 °C 1018.5 hPa SE 3.5 km/h 17.2 km/h 78% 0.0 mm 295 W/m2
15:22 17.2 °C 13.3 °C 1018.2 hPa SE 7.2 km/h 17.2 km/h 78% 0.0 mm 311 W/m2
15:27 17.2 °C 13.2 °C 1018.5 hPa SSE 6.1 km/h 18.3 km/h 77% 0.0 mm 207 W/m2
15:32 16.9 °C 13.1 °C 1018.5 hPa SE 12.2 km/h 18.3 km/h 78% 0.0 mm 203 W/m2
15:37 16.6 °C 13.2 °C 1018.5 hPa SSE 6.1 km/h 15.8 km/h 80% 0.0 mm 208 W/m2
15:42 16.6 °C 12.8 °C 1018.2 hPa SSE 3.5 km/h 17.2 km/h 78% 0.0 mm 264 W/m2
15:47 16.9 °C 13.2 °C 1018.5 hPa SSE 7.2 km/h 17.2 km/h 79% 0.0 mm 202 W/m2
15:52 16.8 °C 12.9 °C 1018.5 hPa South 3.5 km/h 17.2 km/h 78% 0.0 mm 175 W/m2
15:57 16.8 °C 12.9 °C 1018.2 hPa SSE 5.0 km/h 17.2 km/h 78% 0.0 mm 181 W/m2
16:02 16.8 °C 12.9 °C 1018.5 hPa SE 8.7 km/h 12.2 km/h 78% 0.0 mm 183 W/m2
16:07 16.6 °C 12.6 °C 1018.5 hPa SE 2.6 km/h 13.4 km/h 77% 0.0 mm 188 W/m2
16:12 16.6 °C 12.8 °C 1018.5 hPa SE 7.2 km/h 13.4 km/h 78% 0.0 mm 185 W/m2
16:17 16.6 °C 12.9 °C 1018.8 hPa SSE 9.7 km/h 13.4 km/h 79% 0.0 mm 138 W/m2
16:22 16.5 °C 13.1 °C 1018.8 hPa SSE 1.1 km/h 13.4 km/h 80% 0.0 mm 131 W/m2
16:27 16.5 °C 12.8 °C 1018.8 hPa SSE 3.5 km/h 15.8 km/h 79% 0.0 mm 131 W/m2
16:32 16.4 °C 12.8 °C 1018.8 hPa SE 7.2 km/h 15.8 km/h 79% 0.0 mm 119 W/m2
16:37 16.3 °C 12.7 °C 1018.8 hPa SE 2.6 km/h 12.2 km/h 79% 0.0 mm 104 W/m2
16:42 16.1 °C 12.3 °C 1018.8 hPa ESE 2.6 km/h 18.3 km/h 78% 0.0 mm 100 W/m2
16:47 16.0 °C 12.4 °C 1018.8 hPa ESE 6.1 km/h 18.3 km/h 79% 0.0 mm 99 W/m2
16:52 16.0 °C 12.7 °C 1018.8 hPa East 13.4 km/h 18.3 km/h 81% 0.0 mm 96 W/m2
16:57 15.9 °C 13.0 °C 1019.2 hPa ESE 6.1 km/h 18.3 km/h 83% 0.0 mm 90 W/m2
17:02 15.9 °C 13.0 °C 1019.2 hPa ESE 3.5 km/h 18.3 km/h 83% 0.0 mm 84 W/m2
17:07 15.9 °C 13.0 °C 1019.2 hPa East 5.0 km/h 11.1 km/h 83% 0.0 mm 87 W/m2
17:12 15.9 °C 13.0 °C 1019.2 hPa ESE 1.1 km/h 9.7 km/h 83% 0.0 mm 86 W/m2
17:17 16.0 °C 12.9 °C 1019.2 hPa SE 5.0 km/h 11.1 km/h 82% 0.0 mm 86 W/m2
17:22 16.0 °C 12.6 °C 1019.2 hPa SE 2.6 km/h 11.1 km/h 80% 0.0 mm 84 W/m2
17:27 16.0 °C 12.6 °C 1019.2 hPa SE 8.7 km/h 9.7 km/h 80% 0.0 mm 80 W/m2
17:32 16.0 °C 12.6 °C 1019.5 hPa ESE 2.6 km/h 12.2 km/h 80% 0.0 mm 81 W/m2
17:37 16.1 °C 12.7 °C 1019.2 hPa ESE 3.5 km/h 12.2 km/h 80% 0.0 mm 81 W/m2
17:42 16.1 °C 12.7 °C 1019.2 hPa ESE 1.1 km/h 11.1 km/h 80% 0.0 mm 79 W/m2
17:47 16.1 °C 12.7 °C 1019.5 hPa SE 2.6 km/h 11.1 km/h 80% 0.0 mm 66 W/m2
17:52 16.0 °C 12.6 °C 1019.5 hPa SSE 1.1 km/h 9.7 km/h 80% 0.0 mm 60 W/m2
17:57 16.0 °C 12.7 °C 1019.5 hPa SE 5.0 km/h 11.1 km/h 81% 0.0 mm 52 W/m2
18:02 16.0 °C 12.9 °C 1019.5 hPa Calm   11.1 km/h 82% 0.0 mm 50 W/m2
18:07 15.9 °C 12.8 °C 1019.9 hPa SE 2.6 km/h 11.1 km/h 82% 0.0 mm 47 W/m2
18:12 15.9 °C 13.0 °C 1019.5 hPa Calm   11.1 km/h 83% 0.0 mm 41 W/m2
18:17 15.8 °C 12.9 °C 1019.5 hPa ESE 3.5 km/h 9.7 km/h 83% 0.0 mm 42 W/m2
18:22 15.8 °C 12.9 °C 1019.9 hPa ESE 3.5 km/h 9.7 km/h 83% 0.0 mm 46 W/m2
18:27 15.8 °C 12.9 °C 1019.9 hPa ESE 2.6 km/h 9.7 km/h 83% 0.0 mm 39 W/m2
18:32 15.7 °C 12.8 °C 1019.9 hPa ESE 1.1 km/h 11.1 km/h 83% 0.0 mm 34 W/m2
18:37 15.8 °C 12.7 °C 1020.2 hPa ESE 2.6 km/h 11.1 km/h 82% 0.0 mm 28 W/m2
18:42 15.7 °C 12.8 °C 1020.2 hPa ESE 6.1 km/h 13.4 km/h 83% 0.0 mm 21 W/m2
18:47 15.7 °C 12.8 °C 1020.2 hPa ESE 2.6 km/h 13.4 km/h 83% 0.0 mm 19 W/m2
18:52 15.6 °C 12.7 °C 1020.2 hPa ESE 8.7 km/h 13.4 km/h 83% 0.0 mm 14 W/m2
18:57 15.5 °C 12.6 °C 1020.2 hPa ESE 8.7 km/h 13.4 km/h 83% 0.0 mm 11 W/m2
19:02 15.5 °C 12.6 °C 1020.2 hPa ESE 6.1 km/h 13.4 km/h 83% 0.0 mm 12 W/m2
19:07 15.5 °C 12.6 °C 1020.2 hPa ESE 2.6 km/h 13.4 km/h 83% 0.0 mm 9 W/m2
19:25 15.5 °C 12.1 °C 1020.5 hPa East 8.7 km/h 13.4 km/h 80% 0.0 mm 0 W/m2
19:30 15.5 °C 11.9 °C 1020.5 hPa ESE 5.0 km/h 13.4 km/h 79% 0.0 mm 0 W/m2
19:35 15.4 °C 11.8 °C 1020.9 hPa ESE 5.0 km/h 11.1 km/h 79% 0.0 mm 0 W/m2
19:40 15.4 °C 11.8 °C 1020.9 hPa ESE 5.0 km/h 12.2 km/h 79% 0.0 mm 0 W/m2
19:45 15.4 °C 11.8 °C 1020.9 hPa East 2.6 km/h 12.2 km/h 79% 0.0 mm 0 W/m2
19:50 15.4 °C 11.8 °C 1020.9 hPa ESE 3.5 km/h 12.2 km/h 79% 0.0 mm 0 W/m2
19:55 15.3 °C 11.7 °C 1020.9 hPa ESE 1.1 km/h 8.7 km/h 79% 0.0 mm 0 W/m2
20:00 15.3 °C 11.7 °C 1021.2 hPa ESE 1.1 km/h 7.2 km/h 79% 0.0 mm 0 W/m2
20:05 15.3 °C 11.7 °C 1021.2 hPa Calm   5.0 km/h 79% 0.0 mm 0 W/m2
20:10 15.2 °C 11.8 °C 1021.2 hPa Calm   3.5 km/h 80% 0.0 mm 0 W/m2
20:15 15.1 °C 11.9 °C 1021.2 hPa Calm   3.5 km/h 81% 0.0 mm 0 W/m2
20:20 15.1 °C 12.1 °C 1021.6 hPa Calm   3.5 km/h 82% 0.0 mm 0 W/m2
20:25 15.1 °C 12.1 °C 1021.6 hPa East 1.1 km/h 3.5 km/h 82% 0.0 mm 0 W/m2
20:30 15.2 °C 11.9 °C 1021.6 hPa Calm   3.5 km/h 81% 0.0 mm 0 W/m2
20:35 15.2 °C 11.8 °C 1021.6 hPa Calm   6.1 km/h 80% 0.0 mm 0 W/m2
20:40 15.2 °C 11.8 °C 1021.6 hPa SE 2.6 km/h 6.1 km/h 80% 0.0 mm 0 W/m2
20:45 15.2 °C 12.2 °C 1021.9 hPa Calm   5.0 km/h 82% 0.0 mm 0 W/m2
20:50 15.1 °C 12.2 °C 1021.9 hPa SSE 1.1 km/h 6.1 km/h 83% 0.0 mm 0 W/m2
20:55 15.1 °C 12.4 °C 1021.9 hPa Calm   6.1 km/h 84% 0.0 mm 0 W/m2
21:00 15.1 °C 12.4 °C 1021.9 hPa ESE 1.1 km/h 12.2 km/h 84% 0.0 mm 0 W/m2
21:05 15.1 °C 12.6 °C 1021.9 hPa ESE 3.5 km/h 13.4 km/h 85% 0.0 mm 0 W/m2
21:10 15.0 °C 12.8 °C 1022.2 hPa ESE 5.0 km/h 13.4 km/h 87% 0.0 mm 0 W/m2
21:15 14.9 °C 12.9 °C 1022.2 hPa ESE 7.2 km/h 13.4 km/h 88% 0.0 mm 0 W/m2
21:20 14.7 °C 12.7 °C 1022.2 hPa ESE 9.7 km/h 15.8 km/h 88% 0.0 mm 0 W/m2
21:25 14.8 °C 12.7 °C 1022.2 hPa ESE 6.1 km/h 15.8 km/h 87% 0.0 mm 0 W/m2
21:30 14.8 °C 12.7 °C 1022.2 hPa ESE 5.0 km/h 15.8 km/h 87% 0.0 mm 0 W/m2
21:35 14.8 °C 12.7 °C 1022.2 hPa East 6.1 km/h 13.4 km/h 87% 0.0 mm 0 W/m2
21:40 14.7 °C 12.6 °C 1022.2 hPa ESE 7.2 km/h 14.8 km/h 87% 0.0 mm 0 W/m2
21:45 14.6 °C 12.3 °C 1022.6 hPa East 6.1 km/h 15.8 km/h 86% 0.0 mm 0 W/m2
21:50 14.5 °C 12.2 °C 1022.6 hPa East 12.2 km/h 19.5 km/h 86% 0.0 mm 0 W/m2
21:55 14.6 °C 12.1 °C 1022.6 hPa East 3.5 km/h 19.5 km/h 85% 0.0 mm 0 W/m2
22:00 14.6 °C 12.1 °C 1022.6 hPa East 5.0 km/h 17.2 km/h 85% 0.0 mm 0 W/m2
22:06 14.6 °C 12.1 °C 1022.6 hPa East 3.5 km/h 12.2 km/h 85% 0.0 mm 0 W/m2
22:11 14.6 °C 12.1 °C 1022.9 hPa East 2.6 km/h 7.2 km/h 85% 0.0 mm 0 W/m2
22:16 14.6 °C 12.1 °C 1022.9 hPa East 1.1 km/h 7.2 km/h 85% 0.0 mm 0 W/m2
22:21 14.6 °C 12.1 °C 1022.6 hPa East 5.0 km/h 7.2 km/h 85% 0.0 mm 0 W/m2
22:26 14.5 °C 12.0 °C 1022.6 hPa ESE 1.1 km/h 7.2 km/h 85% 0.0 mm 0 W/m2
22:31 14.5 °C 12.0 °C 1022.6 hPa Calm   7.2 km/h 85% 0.0 mm 0 W/m2
22:36 14.4 °C 11.9 °C 1022.6 hPa Calm   5.0 km/h 85% 0.0 mm 0 W/m2
22:41 14.4 °C 11.9 °C 1022.6 hPa East 1.1 km/h 6.1 km/h 85% 0.0 mm 0 W/m2
22:46 14.5 °C 12.0 °C 1022.6 hPa Calm   6.1 km/h 85% 0.0 mm 0 W/m2
22:51 14.5 °C 12.0 °C 1022.9 hPa East 1.1 km/h 6.1 km/h 85% 0.0 mm 0 W/m2
22:56 14.4 °C 11.9 °C 1022.9 hPa East 2.6 km/h 6.1 km/h 85% 0.0 mm 0 W/m2
23:01 14.4 °C 11.9 °C 1022.6 hPa East 3.5 km/h 5.0 km/h 85% 0.0 mm 0 W/m2
23:06 14.3 °C 11.8 °C 1022.9 hPa Calm   5.0 km/h 85% 0.0 mm 0 W/m2
23:11 14.2 °C 11.7 °C 1022.9 hPa Calm   5.0 km/h 85% 0.0 mm 0 W/m2
23:16 14.2 °C 11.7 °C 1022.9 hPa Calm   2.6 km/h 85% 0.0 mm 0 W/m2
23:21 14.1 °C 11.8 °C 1022.9 hPa Calm   2.6 km/h 86% 0.0 mm 0 W/m2
23:26 14.1 °C 11.8 °C 1022.9 hPa Calm     86% 0.0 mm 0 W/m2
23:31 14.1 °C 11.8 °C 1022.9 hPa Calm     86% 0.0 mm 0 W/m2
23:41 13.9 °C 11.9 °C 1022.9 hPa Calm   3.5 km/h 88% 0.0 mm 0 W/m2
23:46 13.8 °C 12.0 °C 1023.2 hPa Calm   1.1 km/h 89% 0.0 mm 0 W/m2
23:51 13.8 °C 12.2 °C 1023.2 hPa Calm   2.6 km/h 90% 0.0 mm 0 W/m2
23:56 13.6 °C 12.0 °C 1022.9 hPa Calm   2.6 km/h 90% 0.0 mm 0 W/m2
Northern Hawkes Bay. New Zealand Historic Data
Compliments of Weather Underground - 2 mb